sensor_id;sensor_type;location;lat;lon;timestamp;P1;durP1;ratioP1;P2;durP2;ratioP2
67798;SDS011;54596;43.216;27.904;2023-04-16T00:00:49;18.30;;;6.82;;
67798;SDS011;54596;43.216;27.904;2023-04-16T00:03:15;19.00;;;6.90;;
67798;SDS011;54596;43.216;27.904;2023-04-16T00:05:40;18.77;;;6.88;;
67798;SDS011;54596;43.216;27.904;2023-04-16T00:08:06;20.20;;;6.90;;
67798;SDS011;54596;43.216;27.904;2023-04-16T00:10:33;15.88;;;7.03;;
67798;SDS011;54596;43.216;27.904;2023-04-16T00:12:59;19.08;;;7.15;;
67798;SDS011;54596;43.216;27.904;2023-04-16T00:15:24;19.95;;;6.68;;
67798;SDS011;54596;43.216;27.904;2023-04-16T00:17:50;18.95;;;7.10;;
67798;SDS011;54596;43.216;27.904;2023-04-16T00:20:15;21.13;;;7.47;;
67798;SDS011;54596;43.216;27.904;2023-04-16T00:22:41;19.20;;;7.47;;
67798;SDS011;54596;43.216;27.904;2023-04-16T00:25:06;16.52;;;6.82;;
67798;SDS011;54596;43.216;27.904;2023-04-16T00:27:34;20.23;;;7.68;;
67798;SDS011;54596;43.216;27.904;2023-04-16T00:29:59;16.17;;;7.47;;
67798;SDS011;54596;43.216;27.904;2023-04-16T00:32:25;19.10;;;7.97;;
67798;SDS011;54596;43.216;27.904;2023-04-16T00:34:50;15.77;;;6.95;;
67798;SDS011;54596;43.216;27.904;2023-04-16T00:37:15;19.05;;;7.82;;
67798;SDS011;54596;43.216;27.904;2023-04-16T00:39:42;22.10;;;8.15;;
67798;SDS011;54596;43.216;27.904;2023-04-16T00:42:07;20.88;;;7.28;;
67798;SDS011;54596;43.216;27.904;2023-04-16T00:44:32;17.73;;;7.25;;
67798;SDS011;54596;43.216;27.904;2023-04-16T00:47:01;17.65;;;7.72;;
67798;SDS011;54596;43.216;27.904;2023-04-16T00:49:27;20.67;;;7.78;;
67798;SDS011;54596;43.216;27.904;2023-04-16T00:51:53;16.33;;;7.22;;
67798;SDS011;54596;43.216;27.904;2023-04-16T00:54:19;18.60;;;7.57;;
67798;SDS011;54596;43.216;27.904;2023-04-16T00:56:45;20.30;;;8.07;;
67798;SDS011;54596;43.216;27.904;2023-04-16T00:59:11;17.23;;;7.47;;
67798;SDS011;54596;43.216;27.904;2023-04-16T01:01:37;19.00;;;7.43;;
67798;SDS011;54596;43.216;27.904;2023-04-16T01:04:02;20.33;;;8.20;;
67798;SDS011;54596;43.216;27.904;2023-04-16T01:06:28;20.48;;;8.15;;
67798;SDS011;54596;43.216;27.904;2023-04-16T01:08:54;20.35;;;7.47;;
67798;SDS011;54596;43.216;27.904;2023-04-16T01:11:19;17.73;;;6.85;;
67798;SDS011;54596;43.216;27.904;2023-04-16T01:13:45;18.77;;;7.35;;
67798;SDS011;54596;43.216;27.904;2023-04-16T01:16:11;18.70;;;7.30;;
67798;SDS011;54596;43.216;27.904;2023-04-16T01:18:37;19.77;;;7.63;;
67798;SDS011;54596;43.216;27.904;2023-04-16T01:21:03;16.95;;;7.00;;
67798;SDS011;54596;43.216;27.904;2023-04-16T01:23:29;19.70;;;7.80;;
67798;SDS011;54596;43.216;27.904;2023-04-16T01:25:55;17.15;;;7.50;;
67798;SDS011;54596;43.216;27.904;2023-04-16T01:28:21;18.00;;;7.70;;
67798;SDS011;54596;43.216;27.904;2023-04-16T01:30:47;20.98;;;7.78;;
67798;SDS011;54596;43.216;27.904;2023-04-16T01:33:13;18.55;;;7.50;;
67798;SDS011;54596;43.216;27.904;2023-04-16T01:35:40;21.15;;;7.43;;
67798;SDS011;54596;43.216;27.904;2023-04-16T01:38:06;18.52;;;7.30;;
67798;SDS011;54596;43.216;27.904;2023-04-16T01:40:33;17.77;;;7.15;;
67798;SDS011;54596;43.216;27.904;2023-04-16T01:42:59;18.17;;;7.20;;
67798;SDS011;54596;43.216;27.904;2023-04-16T01:45:25;21.35;;;7.60;;
67798;SDS011;54596;43.216;27.904;2023-04-16T01:47:50;19.05;;;7.95;;
67798;SDS011;54596;43.216;27.904;2023-04-16T01:50:16;20.30;;;7.65;;
67798;SDS011;54596;43.216;27.904;2023-04-16T01:52:43;20.13;;;7.70;;
67798;SDS011;54596;43.216;27.904;2023-04-16T01:55:10;20.73;;;7.90;;
67798;SDS011;54596;43.216;27.904;2023-04-16T01:57:36;19.63;;;7.97;;
67798;SDS011;54596;43.216;27.904;2023-04-16T02:00:02;18.38;;;8.05;;
67798;SDS011;54596;43.216;27.904;2023-04-16T02:02:28;21.17;;;8.30;;
67798;SDS011;54596;43.216;27.904;2023-04-16T02:04:55;18.92;;;8.23;;
67798;SDS011;54596;43.216;27.904;2023-04-16T02:07:21;18.45;;;7.30;;
67798;SDS011;54596;43.216;27.904;2023-04-16T02:09:47;18.20;;;7.68;;
67798;SDS011;54596;43.216;27.904;2023-04-16T02:12:14;20.95;;;8.40;;
67798;SDS011;54596;43.216;27.904;2023-04-16T02:14:40;20.02;;;8.18;;
67798;SDS011;54596;43.216;27.904;2023-04-16T02:17:05;19.65;;;8.70;;
67798;SDS011;54596;43.216;27.904;2023-04-16T02:19:31;20.83;;;8.48;;
67798;SDS011;54596;43.216;27.904;2023-04-16T02:21:56;20.42;;;8.93;;
67798;SDS011;54596;43.216;27.904;2023-04-16T02:24:22;16.75;;;8.07;;
67798;SDS011;54596;43.216;27.904;2023-04-16T02:26:47;20.25;;;8.70;;
67798;SDS011;54596;43.216;27.904;2023-04-16T02:29:13;18.63;;;8.55;;
67798;SDS011;54596;43.216;27.904;2023-04-16T02:31:38;19.95;;;8.27;;
67798;SDS011;54596;43.216;27.904;2023-04-16T02:34:06;18.17;;;8.30;;
67798;SDS011;54596;43.216;27.904;2023-04-16T02:36:32;20.50;;;8.77;;
67798;SDS011;54596;43.216;27.904;2023-04-16T02:38:57;19.08;;;8.77;;
67798;SDS011;54596;43.216;27.904;2023-04-16T02:41:23;18.23;;;8.18;;
67798;SDS011;54596;43.216;27.904;2023-04-16T02:43:49;21.30;;;8.90;;
67798;SDS011;54596;43.216;27.904;2023-04-16T02:46:15;18.88;;;7.57;;
67798;SDS011;54596;43.216;27.904;2023-04-16T02:48:41;21.58;;;8.68;;
67798;SDS011;54596;43.216;27.904;2023-04-16T02:51:06;18.02;;;8.10;;
67798;SDS011;54596;43.216;27.904;2023-04-16T02:53:32;18.83;;;8.32;;
67798;SDS011;54596;43.216;27.904;2023-04-16T02:55:57;16.83;;;8.15;;
67798;SDS011;54596;43.216;27.904;2023-04-16T02:58:23;22.98;;;8.80;;
67798;SDS011;54596;43.216;27.904;2023-04-16T03:00:52;18.63;;;8.32;;
67798;SDS011;54596;43.216;27.904;2023-04-16T03:03:18;20.45;;;8.45;;
67798;SDS011;54596;43.216;27.904;2023-04-16T03:05:44;19.17;;;8.45;;
67798;SDS011;54596;43.216;27.904;2023-04-16T03:08:10;23.65;;;9.23;;
67798;SDS011;54596;43.216;27.904;2023-04-16T03:10:35;19.35;;;7.82;;
67798;SDS011;54596;43.216;27.904;2023-04-16T03:13:01;20.25;;;8.27;;
67798;SDS011;54596;43.216;27.904;2023-04-16T03:15:27;22.70;;;8.57;;
67798;SDS011;54596;43.216;27.904;2023-04-16T03:17:53;19.48;;;8.63;;
67798;SDS011;54596;43.216;27.904;2023-04-16T03:20:18;17.38;;;7.93;;
67798;SDS011;54596;43.216;27.904;2023-04-16T03:22:47;22.55;;;8.15;;
67798;SDS011;54596;43.216;27.904;2023-04-16T03:25:13;19.67;;;8.60;;
67798;SDS011;54596;43.216;27.904;2023-04-16T03:27:38;20.63;;;8.45;;
67798;SDS011;54596;43.216;27.904;2023-04-16T03:30:07;17.42;;;8.30;;
67798;SDS011;54596;43.216;27.904;2023-04-16T03:32:35;20.38;;;8.25;;
67798;SDS011;54596;43.216;27.904;2023-04-16T03:35:01;18.70;;;8.18;;
67798;SDS011;54596;43.216;27.904;2023-04-16T03:37:27;20.40;;;8.05;;
67798;SDS011;54596;43.216;27.904;2023-04-16T03:39:53;19.02;;;8.07;;
67798;SDS011;54596;43.216;27.904;2023-04-16T03:42:18;23.30;;;8.63;;
67798;SDS011;54596;43.216;27.904;2023-04-16T03:44:44;19.13;;;8.18;;
67798;SDS011;54596;43.216;27.904;2023-04-16T03:47:09;21.23;;;8.75;;
67798;SDS011;54596;43.216;27.904;2023-04-16T03:49:35;20.92;;;8.70;;
67798;SDS011;54596;43.216;27.904;2023-04-16T03:52:00;16.85;;;8.18;;
67798;SDS011;54596;43.216;27.904;2023-04-16T03:54:26;23.98;;;8.40;;
67798;SDS011;54596;43.216;27.904;2023-04-16T03:56:52;21.25;;;8.60;;
67798;SDS011;54596;43.216;27.904;2023-04-16T03:59:17;19.05;;;8.27;;
67798;SDS011;54596;43.216;27.904;2023-04-16T04:01:43;24.80;;;8.45;;
67798;SDS011;54596;43.216;27.904;2023-04-16T04:04:08;21.38;;;8.68;;
67798;SDS011;54596;43.216;27.904;2023-04-16T04:06:34;22.45;;;8.70;;
67798;SDS011;54596;43.216;27.904;2023-04-16T04:09:00;20.33;;;8.80;;
67798;SDS011;54596;43.216;27.904;2023-04-16T04:11:26;18.75;;;8.32;;
67798;SDS011;54596;43.216;27.904;2023-04-16T04:13:51;22.42;;;9.48;;
67798;SDS011;54596;43.216;27.904;2023-04-16T04:16:17;22.25;;;8.60;;
67798;SDS011;54596;43.216;27.904;2023-04-16T04:18:42;19.98;;;8.35;;
67798;SDS011;54596;43.216;27.904;2023-04-16T04:21:08;19.58;;;8.70;;
67798;SDS011;54596;43.216;27.904;2023-04-16T04:23:34;21.23;;;9.00;;
67798;SDS011;54596;43.216;27.904;2023-04-16T04:26:00;20.98;;;10.02;;
67798;SDS011;54596;43.216;27.904;2023-04-16T04:28:28;21.63;;;9.15;;
67798;SDS011;54596;43.216;27.904;2023-04-16T04:30:55;20.58;;;8.90;;
67798;SDS011;54596;43.216;27.904;2023-04-16T04:33:24;21.23;;;9.07;;
67798;SDS011;54596;43.216;27.904;2023-04-16T04:35:50;18.95;;;8.95;;
67798;SDS011;54596;43.216;27.904;2023-04-16T04:38:16;20.70;;;8.80;;
67798;SDS011;54596;43.216;27.904;2023-04-16T04:40:44;23.42;;;8.52;;
67798;SDS011;54596;43.216;27.904;2023-04-16T04:43:10;24.10;;;8.80;;
67798;SDS011;54596;43.216;27.904;2023-04-16T04:45:36;25.38;;;9.30;;
67798;SDS011;54596;43.216;27.904;2023-04-16T04:48:01;26.92;;;10.18;;
67798;SDS011;54596;43.216;27.904;2023-04-16T04:50:27;25.48;;;9.40;;
67798;SDS011;54596;43.216;27.904;2023-04-16T04:52:52;19.52;;;8.52;;
67798;SDS011;54596;43.216;27.904;2023-04-16T04:55:18;31.40;;;12.70;;
67798;SDS011;54596;43.216;27.904;2023-04-16T04:57:43;28.00;;;13.52;;
67798;SDS011;54596;43.216;27.904;2023-04-16T05:00:09;23.48;;;11.85;;
67798;SDS011;54596;43.216;27.904;2023-04-16T05:02:35;26.83;;;12.88;;
67798;SDS011;54596;43.216;27.904;2023-04-16T05:05:01;32.05;;;15.35;;
67798;SDS011;54596;43.216;27.904;2023-04-16T05:07:27;32.05;;;16.38;;
67798;SDS011;54596;43.216;27.904;2023-04-16T05:09:52;30.33;;;16.38;;
67798;SDS011;54596;43.216;27.904;2023-04-16T05:12:18;28.23;;;15.52;;
67798;SDS011;54596;43.216;27.904;2023-04-16T05:14:43;29.25;;;16.33;;
67798;SDS011;54596;43.216;27.904;2023-04-16T05:17:09;30.45;;;15.68;;
67798;SDS011;54596;43.216;27.904;2023-04-16T05:19:35;28.05;;;15.57;;
67798;SDS011;54596;43.216;27.904;2023-04-16T05:22:00;28.88;;;16.67;;
67798;SDS011;54596;43.216;27.904;2023-04-16T05:24:26;32.58;;;17.00;;
67798;SDS011;54596;43.216;27.904;2023-04-16T05:26:52;29.27;;;17.00;;
67798;SDS011;54596;43.216;27.904;2023-04-16T05:29:18;32.20;;;16.65;;
67798;SDS011;54596;43.216;27.904;2023-04-16T05:31:43;29.70;;;15.77;;
67798;SDS011;54596;43.216;27.904;2023-04-16T05:34:09;39.38;;;27.63;;
67798;SDS011;54596;43.216;27.904;2023-04-16T05:36:35;29.92;;;16.05;;
67798;SDS011;54596;43.216;27.904;2023-04-16T05:39:00;30.25;;;15.13;;
67798;SDS011;54596;43.216;27.904;2023-04-16T05:41:28;30.30;;;14.68;;
67798;SDS011;54596;43.216;27.904;2023-04-16T05:43:54;28.35;;;14.00;;
67798;SDS011;54596;43.216;27.904;2023-04-16T05:46:21;29.83;;;14.32;;
67798;SDS011;54596;43.216;27.904;2023-04-16T05:48:47;26.58;;;13.57;;
67798;SDS011;54596;43.216;27.904;2023-04-16T05:51:12;27.25;;;13.93;;
67798;SDS011;54596;43.216;27.904;2023-04-16T05:53:38;30.15;;;14.38;;
67798;SDS011;54596;43.216;27.904;2023-04-16T05:56:05;27.60;;;14.23;;
67798;SDS011;54596;43.216;27.904;2023-04-16T05:58:31;31.20;;;14.52;;
67798;SDS011;54596;43.216;27.904;2023-04-16T06:00:57;26.08;;;14.68;;
67798;SDS011;54596;43.216;27.904;2023-04-16T06:03:23;33.55;;;14.80;;
67798;SDS011;54596;43.216;27.904;2023-04-16T06:05:49;33.40;;;15.15;;
67798;SDS011;54596;43.216;27.904;2023-04-16T06:08:17;26.85;;;14.02;;
67798;SDS011;54596;43.216;27.904;2023-04-16T06:10:46;29.10;;;15.63;;
67798;SDS011;54596;43.216;27.904;2023-04-16T06:13:11;28.15;;;15.40;;
67798;SDS011;54596;43.216;27.904;2023-04-16T06:15:37;28.88;;;13.70;;
67798;SDS011;54596;43.216;27.904;2023-04-16T06:18:03;342.98;;;37.58;;
67798;SDS011;54596;43.216;27.904;2023-04-16T06:20:28;160.63;;;21.50;;
67798;SDS011;54596;43.216;27.904;2023-04-16T06:22:54;18.05;;;7.18;;
67798;SDS011;54596;43.216;27.904;2023-04-16T06:25:20;22.10;;;7.45;;
67798;SDS011;54596;43.216;27.904;2023-04-16T06:27:46;19.65;;;7.00;;
67798;SDS011;54596;43.216;27.904;2023-04-16T06:30:12;25.05;;;7.45;;
67798;SDS011;54596;43.216;27.904;2023-04-16T06:32:38;26.88;;;9.43;;
67798;SDS011;54596;43.216;27.904;2023-04-16T06:35:04;19.05;;;6.13;;
67798;SDS011;54596;43.216;27.904;2023-04-16T06:37:32;21.08;;;5.95;;
67798;SDS011;54596;43.216;27.904;2023-04-16T06:39:57;21.40;;;5.97;;
67798;SDS011;54596;43.216;27.904;2023-04-16T06:42:23;20.50;;;5.40;;
67798;SDS011;54596;43.216;27.904;2023-04-16T06:44:48;19.40;;;5.50;;
67798;SDS011;54596;43.216;27.904;2023-04-16T06:47:15;18.60;;;5.63;;
67798;SDS011;54596;43.216;27.904;2023-04-16T06:49:41;145.50;;;11.50;;
67798;SDS011;54596;43.216;27.904;2023-04-16T06:52:06;57.15;;;7.40;;
67798;SDS011;54596;43.216;27.904;2023-04-16T06:54:32;26.17;;;5.13;;
67798;SDS011;54596;43.216;27.904;2023-04-16T06:56:58;18.30;;;5.40;;
67798;SDS011;54596;43.216;27.904;2023-04-16T06:59:23;19.80;;;5.72;;
67798;SDS011;54596;43.216;27.904;2023-04-16T07:01:50;16.58;;;5.13;;
67798;SDS011;54596;43.216;27.904;2023-04-16T07:04:16;14.32;;;4.97;;
67798;SDS011;54596;43.216;27.904;2023-04-16T07:06:41;13.98;;;5.18;;
67798;SDS011;54596;43.216;27.904;2023-04-16T07:09:06;16.85;;;5.07;;
67798;SDS011;54596;43.216;27.904;2023-04-16T07:11:32;14.32;;;5.13;;
67798;SDS011;54596;43.216;27.904;2023-04-16T07:13:58;18.58;;;5.28;;
67798;SDS011;54596;43.216;27.904;2023-04-16T07:16:23;14.00;;;5.30;;
67798;SDS011;54596;43.216;27.904;2023-04-16T07:18:49;13.88;;;5.25;;
67798;SDS011;54596;43.216;27.904;2023-04-16T07:21:14;15.43;;;5.20;;
67798;SDS011;54596;43.216;27.904;2023-04-16T07:23:40;17.75;;;5.70;;
67798;SDS011;54596;43.216;27.904;2023-04-16T07:26:07;15.00;;;5.90;;
67798;SDS011;54596;43.216;27.904;2023-04-16T07:28:34;17.50;;;5.43;;
67798;SDS011;54596;43.216;27.904;2023-04-16T07:30:59;16.77;;;5.82;;
67798;SDS011;54596;43.216;27.904;2023-04-16T07:33:25;18.08;;;5.60;;
67798;SDS011;54596;43.216;27.904;2023-04-16T07:35:52;13.70;;;5.47;;
67798;SDS011;54596;43.216;27.904;2023-04-16T07:38:19;16.83;;;5.53;;
67798;SDS011;54596;43.216;27.904;2023-04-16T07:40:45;14.25;;;5.10;;
67798;SDS011;54596;43.216;27.904;2023-04-16T07:43:12;15.98;;;5.18;;
67798;SDS011;54596;43.216;27.904;2023-04-16T07:45:40;28.52;;;5.75;;
67798;SDS011;54596;43.216;27.904;2023-04-16T07:48:06;14.50;;;5.13;;
67798;SDS011;54596;43.216;27.904;2023-04-16T07:50:31;17.70;;;4.75;;
67798;SDS011;54596;43.216;27.904;2023-04-16T07:52:57;13.38;;;5.35;;
67798;SDS011;54596;43.216;27.904;2023-04-16T07:55:23;14.13;;;5.05;;
67798;SDS011;54596;43.216;27.904;2023-04-16T07:57:51;20.52;;;5.30;;
67798;SDS011;54596;43.216;27.904;2023-04-16T08:00:19;13.73;;;4.68;;
67798;SDS011;54596;43.216;27.904;2023-04-16T08:02:48;15.85;;;4.38;;
67798;SDS011;54596;43.216;27.904;2023-04-16T08:05:16;13.70;;;4.45;;
67798;SDS011;54596;43.216;27.904;2023-04-16T08:07:41;12.38;;;4.88;;
67798;SDS011;54596;43.216;27.904;2023-04-16T08:10:07;14.32;;;4.82;;
67798;SDS011;54596;43.216;27.904;2023-04-16T08:12:34;13.63;;;4.78;;
67798;SDS011;54596;43.216;27.904;2023-04-16T08:14:59;13.57;;;4.97;;
67798;SDS011;54596;43.216;27.904;2023-04-16T08:17:25;11.95;;;4.68;;
67798;SDS011;54596;43.216;27.904;2023-04-16T08:19:52;13.90;;;5.32;;
67798;SDS011;54596;43.216;27.904;2023-04-16T08:22:17;14.13;;;4.93;;
67798;SDS011;54596;43.216;27.904;2023-04-16T08:24:43;12.68;;;5.32;;
67798;SDS011;54596;43.216;27.904;2023-04-16T08:27:09;14.68;;;5.63;;
67798;SDS011;54596;43.216;27.904;2023-04-16T08:29:35;12.90;;;5.07;;
67798;SDS011;54596;43.216;27.904;2023-04-16T08:32:01;12.80;;;5.15;;
67798;SDS011;54596;43.216;27.904;2023-04-16T08:34:28;16.63;;;5.70;;
67798;SDS011;54596;43.216;27.904;2023-04-16T08:36:53;13.93;;;6.15;;
67798;SDS011;54596;43.216;27.904;2023-04-16T08:39:19;15.60;;;6.47;;
67798;SDS011;54596;43.216;27.904;2023-04-16T08:41:45;23.02;;;6.28;;
67798;SDS011;54596;43.216;27.904;2023-04-16T08:44:24;17.38;;;4.93;;
67798;SDS011;54596;43.216;27.904;2023-04-16T08:46:53;15.95;;;5.43;;
67798;SDS011;54596;43.216;27.904;2023-04-16T08:49:23;12.85;;;4.55;;
67798;SDS011;54596;43.216;27.904;2023-04-16T08:51:55;11.80;;;5.05;;
67798;SDS011;54596;43.216;27.904;2023-04-16T08:54:36;16.70;;;5.20;;
67798;SDS011;54596;43.216;27.904;2023-04-16T08:57:08;14.73;;;5.18;;
67798;SDS011;54596;43.216;27.904;2023-04-16T08:59:35;14.60;;;5.03;;
67798;SDS011;54596;43.216;27.904;2023-04-16T09:02:02;13.57;;;5.13;;
67798;SDS011;54596;43.216;27.904;2023-04-16T09:04:30;15.20;;;5.07;;
67798;SDS011;54596;43.216;27.904;2023-04-16T09:06:57;13.35;;;4.95;;
67798;SDS011;54596;43.216;27.904;2023-04-16T09:09:23;13.57;;;5.10;;
67798;SDS011;54596;43.216;27.904;2023-04-16T09:11:51;20.98;;;5.43;;
67798;SDS011;54596;43.216;27.904;2023-04-16T09:14:17;17.20;;;5.32;;
67798;SDS011;54596;43.216;27.904;2023-04-16T09:16:44;14.18;;;4.95;;
67798;SDS011;54596;43.216;27.904;2023-04-16T09:19:13;13.23;;;5.25;;
67798;SDS011;54596;43.216;27.904;2023-04-16T09:21:40;14.70;;;5.05;;
67798;SDS011;54596;43.216;27.904;2023-04-16T09:24:08;16.23;;;5.07;;
67798;SDS011;54596;43.216;27.904;2023-04-16T09:26:34;23.40;;;5.95;;
67798;SDS011;54596;43.216;27.904;2023-04-16T09:29:00;11.95;;;5.30;;
67798;SDS011;54596;43.216;27.904;2023-04-16T09:31:26;19.60;;;6.13;;
67798;SDS011;54596;43.216;27.904;2023-04-16T09:34:02;31.45;;;6.70;;
67798;SDS011;54596;43.216;27.904;2023-04-16T09:36:30;17.25;;;6.00;;
67798;SDS011;54596;43.216;27.904;2023-04-16T09:38:57;16.25;;;6.22;;
67798;SDS011;54596;43.216;27.904;2023-04-16T09:41:30;12.90;;;6.10;;
67798;SDS011;54596;43.216;27.904;2023-04-16T09:44:05;12.25;;;5.93;;
67798;SDS011;54596;43.216;27.904;2023-04-16T09:46:31;11.38;;;5.45;;
67798;SDS011;54596;43.216;27.904;2023-04-16T09:51:57;36.17;;;6.47;;
67798;SDS011;54596;43.216;27.904;2023-04-16T09:54:24;11.10;;;5.13;;
67798;SDS011;54596;43.216;27.904;2023-04-16T09:56:50;14.02;;;5.28;;
67798;SDS011;54596;43.216;27.904;2023-04-16T09:59:20;14.35;;;5.78;;
67798;SDS011;54596;43.216;27.904;2023-04-16T10:01:49;17.17;;;5.63;;
67798;SDS011;54596;43.216;27.904;2023-04-16T10:04:17;13.00;;;5.40;;
67798;SDS011;54596;43.216;27.904;2023-04-16T10:06:43;11.18;;;5.40;;
67798;SDS011;54596;43.216;27.904;2023-04-16T10:09:12;13.18;;;5.55;;
67798;SDS011;54596;43.216;27.904;2023-04-16T10:11:38;12.02;;;5.57;;
67798;SDS011;54596;43.216;27.904;2023-04-16T10:14:03;13.85;;;5.68;;
67798;SDS011;54596;43.216;27.904;2023-04-16T10:16:29;12.77;;;5.50;;
67798;SDS011;54596;43.216;27.904;2023-04-16T10:18:55;18.15;;;6.13;;
67798;SDS011;54596;43.216;27.904;2023-04-16T10:21:20;32.03;;;6.82;;
67798;SDS011;54596;43.216;27.904;2023-04-16T10:23:46;45.08;;;7.07;;
67798;SDS011;54596;43.216;27.904;2023-04-16T10:26:13;16.33;;;6.13;;
67798;SDS011;54596;43.216;27.904;2023-04-16T10:28:39;13.40;;;6.10;;
67798;SDS011;54596;43.216;27.904;2023-04-16T10:31:06;16.52;;;6.10;;
67798;SDS011;54596;43.216;27.904;2023-04-16T10:33:34;35.10;;;6.30;;
67798;SDS011;54596;43.216;27.904;2023-04-16T10:36:07;15.98;;;6.25;;
67798;SDS011;54596;43.216;27.904;2023-04-16T10:38:37;18.45;;;6.10;;
67798;SDS011;54596;43.216;27.904;2023-04-16T10:41:04;15.27;;;5.72;;
67798;SDS011;54596;43.216;27.904;2023-04-16T10:43:32;12.85;;;5.75;;
67798;SDS011;54596;43.216;27.904;2023-04-16T10:48:46;15.15;;;5.95;;
67798;SDS011;54596;43.216;27.904;2023-04-16T10:51:22;15.65;;;6.10;;
67798;SDS011;54596;43.216;27.904;2023-04-16T10:53:50;14.98;;;6.38;;
67798;SDS011;54596;43.216;27.904;2023-04-16T10:56:21;28.27;;;6.65;;
67798;SDS011;54596;43.216;27.904;2023-04-16T10:58:47;16.17;;;6.50;;
67798;SDS011;54596;43.216;27.904;2023-04-16T11:01:13;15.25;;;6.30;;
67798;SDS011;54596;43.216;27.904;2023-04-16T11:03:46;14.15;;;5.95;;
67798;SDS011;54596;43.216;27.904;2023-04-16T11:06:15;16.63;;;5.88;;
67798;SDS011;54596;43.216;27.904;2023-04-16T11:08:49;14.75;;;5.70;;
67798;SDS011;54596;43.216;27.904;2023-04-16T11:11:15;13.57;;;6.15;;
67798;SDS011;54596;43.216;27.904;2023-04-16T11:13:42;18.17;;;5.97;;
67798;SDS011;54596;43.216;27.904;2023-04-16T11:16:10;15.35;;;5.93;;
67798;SDS011;54596;43.216;27.904;2023-04-16T11:18:37;17.92;;;5.97;;
67798;SDS011;54596;43.216;27.904;2023-04-16T11:21:07;27.05;;;6.90;;
67798;SDS011;54596;43.216;27.904;2023-04-16T11:23:47;13.57;;;5.55;;
67798;SDS011;54596;43.216;27.904;2023-04-16T11:26:28;17.83;;;6.47;;
67798;SDS011;54596;43.216;27.904;2023-04-16T11:28:57;15.45;;;6.28;;
67798;SDS011;54596;43.216;27.904;2023-04-16T11:31:24;15.68;;;5.90;;
67798;SDS011;54596;43.216;27.904;2023-04-16T11:33:51;16.42;;;6.20;;
67798;SDS011;54596;43.216;27.904;2023-04-16T11:36:16;15.05;;;6.25;;
67798;SDS011;54596;43.216;27.904;2023-04-16T11:38:42;19.55;;;6.50;;
67798;SDS011;54596;43.216;27.904;2023-04-16T11:41:08;18.33;;;6.45;;
67798;SDS011;54596;43.216;27.904;2023-04-16T11:43:35;13.35;;;6.05;;
67798;SDS011;54596;43.216;27.904;2023-04-16T11:46:04;18.05;;;6.30;;
67798;SDS011;54596;43.216;27.904;2023-04-16T11:48:50;16.17;;;6.15;;
67798;SDS011;54596;43.216;27.904;2023-04-16T11:51:17;14.82;;;6.60;;
67798;SDS011;54596;43.216;27.904;2023-04-16T11:53:49;19.40;;;6.72;;
67798;SDS011;54596;43.216;27.904;2023-04-16T11:56:27;21.00;;;6.72;;
67798;SDS011;54596;43.216;27.904;2023-04-16T11:59:10;16.08;;;6.10;;
67798;SDS011;54596;43.216;27.904;2023-04-16T12:01:38;14.48;;;6.28;;
67798;SDS011;54596;43.216;27.904;2023-04-16T12:04:05;16.05;;;6.50;;
67798;SDS011;54596;43.216;27.904;2023-04-16T12:06:31;17.08;;;6.25;;
67798;SDS011;54596;43.216;27.904;2023-04-16T12:08:57;15.23;;;6.15;;
67798;SDS011;54596;43.216;27.904;2023-04-16T12:11:36;13.25;;;6.05;;
67798;SDS011;54596;43.216;27.904;2023-04-16T12:14:05;17.73;;;6.22;;
67798;SDS011;54596;43.216;27.904;2023-04-16T12:16:34;13.88;;;6.03;;
67798;SDS011;54596;43.216;27.904;2023-04-16T12:19:01;17.05;;;6.28;;
67798;SDS011;54596;43.216;27.904;2023-04-16T12:21:52;17.23;;;6.00;;
67798;SDS011;54596;43.216;27.904;2023-04-16T12:24:23;14.60;;;5.93;;
67798;SDS011;54596;43.216;27.904;2023-04-16T12:26:52;18.38;;;6.40;;
67798;SDS011;54596;43.216;27.904;2023-04-16T12:29:22;18.75;;;6.57;;
67798;SDS011;54596;43.216;27.904;2023-04-16T12:32:29;18.00;;;6.88;;
67798;SDS011;54596;43.216;27.904;2023-04-16T12:34:54;16.63;;;6.50;;
67798;SDS011;54596;43.216;27.904;2023-04-16T12:37:20;19.38;;;6.32;;
67798;SDS011;54596;43.216;27.904;2023-04-16T12:39:45;15.68;;;6.50;;
67798;SDS011;54596;43.216;27.904;2023-04-16T12:42:11;15.75;;;6.43;;
67798;SDS011;54596;43.216;27.904;2023-04-16T12:44:39;15.27;;;6.00;;
67798;SDS011;54596;43.216;27.904;2023-04-16T12:47:05;15.95;;;6.25;;
67798;SDS011;54596;43.216;27.904;2023-04-16T12:49:30;15.77;;;6.13;;
67798;SDS011;54596;43.216;27.904;2023-04-16T12:51:56;15.82;;;6.15;;
67798;SDS011;54596;43.216;27.904;2023-04-16T12:54:21;17.98;;;6.88;;
67798;SDS011;54596;43.216;27.904;2023-04-16T12:56:47;17.23;;;9.40;;
67798;SDS011;54596;43.216;27.904;2023-04-16T12:59:12;17.98;;;6.40;;
67798;SDS011;54596;43.216;27.904;2023-04-16T13:01:41;18.05;;;6.22;;
67798;SDS011;54596;43.216;27.904;2023-04-16T13:04:06;18.40;;;6.63;;
67798;SDS011;54596;43.216;27.904;2023-04-16T13:06:33;19.40;;;6.90;;
67798;SDS011;54596;43.216;27.904;2023-04-16T13:09:00;16.73;;;6.63;;
67798;SDS011;54596;43.216;27.904;2023-04-16T13:11:26;16.67;;;6.35;;
67798;SDS011;54596;43.216;27.904;2023-04-16T13:13:51;16.65;;;5.95;;
67798;SDS011;54596;43.216;27.904;2023-04-16T13:16:17;17.55;;;6.45;;
67798;SDS011;54596;43.216;27.904;2023-04-16T13:18:43;16.67;;;6.45;;
67798;SDS011;54596;43.216;27.904;2023-04-16T13:21:09;18.15;;;6.50;;
67798;SDS011;54596;43.216;27.904;2023-04-16T13:23:36;18.45;;;6.30;;
67798;SDS011;54596;43.216;27.904;2023-04-16T13:26:02;18.10;;;7.03;;
67798;SDS011;54596;43.216;27.904;2023-04-16T13:28:28;18.73;;;6.70;;
67798;SDS011;54596;43.216;27.904;2023-04-16T13:30:53;20.23;;;6.93;;
67798;SDS011;54596;43.216;27.904;2023-04-16T13:33:21;15.52;;;6.75;;
67798;SDS011;54596;43.216;27.904;2023-04-16T13:35:48;19.42;;;6.97;;
67798;SDS011;54596;43.216;27.904;2023-04-16T13:38:14;19.02;;;7.10;;
67798;SDS011;54596;43.216;27.904;2023-04-16T13:40:40;26.38;;;6.88;;
67798;SDS011;54596;43.216;27.904;2023-04-16T13:43:05;17.00;;;6.68;;
67798;SDS011;54596;43.216;27.904;2023-04-16T13:45:31;17.83;;;7.15;;
67798;SDS011;54596;43.216;27.904;2023-04-16T13:47:57;18.15;;;6.35;;
67798;SDS011;54596;43.216;27.904;2023-04-16T13:50:22;20.50;;;7.32;;
67798;SDS011;54596;43.216;27.904;2023-04-16T13:52:47;16.80;;;6.88;;
67798;SDS011;54596;43.216;27.904;2023-04-16T13:55:13;17.88;;;6.90;;
67798;SDS011;54596;43.216;27.904;2023-04-16T13:57:42;20.67;;;7.28;;
67798;SDS011;54596;43.216;27.904;2023-04-16T14:00:07;20.30;;;7.13;;
67798;SDS011;54596;43.216;27.904;2023-04-16T14:02:33;29.58;;;8.07;;
67798;SDS011;54596;43.216;27.904;2023-04-16T14:04:59;15.48;;;6.93;;
67798;SDS011;54596;43.216;27.904;2023-04-16T14:07:24;23.00;;;7.45;;
67798;SDS011;54596;43.216;27.904;2023-04-16T14:09:51;20.08;;;7.38;;
67798;SDS011;54596;43.216;27.904;2023-04-16T14:12:19;17.90;;;7.30;;
67798;SDS011;54596;43.216;27.904;2023-04-16T14:14:45;16.30;;;7.28;;
67798;SDS011;54596;43.216;27.904;2023-04-16T14:17:10;21.00;;;7.82;;
67798;SDS011;54596;43.216;27.904;2023-04-16T14:19:36;21.33;;;7.65;;
67798;SDS011;54596;43.216;27.904;2023-04-16T14:22:06;16.70;;;7.10;;
67798;SDS011;54596;43.216;27.904;2023-04-16T14:24:31;18.83;;;8.02;;